Time;durP1;ratioP1;P1;durP2;ratioP2;P2;SDS_P1;SDS_P2;PMS_P1;PMS_P2;Temp;Humidity;BMP_temperature;BMP_pressure;BME280_temperature;BME280_humidity;BME280_pressure;Samples;Min_cycle;Max_cycle;Signal;HPM_P1;HPM_P2
2023/01/11 00:01:02;;;;;;;;;;;;;;;;;;4439387;32;20049;-77
2023/01/11 00:03:28;;;;;;;19.55;11.27;;;;;;;;;;4458440;32;19964;-78
2023/01/11 00:05:54;;;;;;;27.90;11.32;;;;;;;;;;4460714;32;20096;-79
2023/01/11 00:08:20;;;;;;;21.27;11.05;;;;;;;;;;4453407;32;20026;-77
2023/01/11 00:10:46;;;;;;;26.73;11.77;;;;;;;;;;4451682;32;20057;-77
2023/01/11 00:13:11;;;;;;;;;;;;;;;;;;4453188;32;20396;-78
2023/01/11 00:15:37;;;;;;;23.33;11.52;;;;;;;;;;4453036;32;19968;-77
2023/01/11 00:18:02;;;;;;;;;;;;;;;;;;4440274;32;20128;-78
2023/01/11 00:20:27;;;;;;;24.85;10.90;;;;;;;;;;4452175;32;19937;-75
2023/01/11 00:22:52;;;;;;;20.12;10.70;;;;;;;;;;4439259;32;20064;-78
2023/01/11 00:25:17;;;;;;;;;;;;;;;;;;4451777;32;20073;-76
2023/01/11 00:27:43;;;;;;;18.92;12.48;;;;;;;;;;4452664;32;19933;-76
2023/01/11 00:30:08;;;;;;;;;;;;;;;;;;4437160;32;20133;-76
2023/01/11 00:32:33;;;;;;;20.88;9.85;;;;;;;;;;4452022;32;19979;-76
2023/01/11 00:34:58;;;;;;;;;;;;;;;;;;4452342;32;20540;-76
2023/01/11 00:37:23;;;;;;;17.67;11.02;;;;;;;;;;4439104;32;19948;-76
2023/01/11 00:39:48;;;;;;;;;;;;;;;;;;4452326;32;20151;-76
2023/01/11 00:47:57;;;;;;;16.70;9.32;;;;;;;;;;4453207;32;20047;-76
2023/01/11 00:50:22;;;;;;;14.60;9.02;;;;;;;;;;4437491;32;20060;-73
2023/01/11 00:52:48;;;;;;;;;;;;;;;;;;4451423;32;20026;-74
2023/01/11 00:55:13;;;;;;;15.13;7.68;;;;;;;;;;4438194;32;20003;-74
2023/01/11 00:57:38;;;;;;;;;;;;;;;;;;4451729;32;20037;-75
2023/01/11 01:00:04;;;;;;;19.75;8.10;;;;;;;;;;4452926;32;19937;-74
2023/01/11 01:02:29;;;;;;;;;;;;;;;;;;4451409;32;20132;-74
2023/01/11 01:04:54;;;;;;;18.18;8.66;;;;;;;;;;4452632;32;19972;-74
2023/01/11 01:07:19;;;;;;;;;;;;;;;;;;4452575;32;20048;-74
2023/01/11 01:09:44;;;;;;;15.32;8.80;;;;;;;;;;4451350;32;20032;-75
2023/01/11 01:12:10;;;;;;;14.87;9.63;;;;;;;;;;4451534;32;20070;-74
2023/01/11 01:14:35;;;;;;;19.42;10.32;;;;;;;;;;4452465;32;20059;-74
2023/01/11 01:17:01;;;;;;;15.55;9.73;;;;;;;;;;4452603;32;20097;-75
2023/01/11 01:19:27;;;;;;;18.85;9.93;;;;;;;;;;4437157;32;20089;-74
2023/01/11 01:21:56;;;;;;;12.13;9.23;;;;;;;;;;4454581;32;20049;-74
2023/01/11 01:24:22;;;;;;;15.23;9.40;;;;;;;;;;4465369;32;20014;-74
2023/01/11 01:26:47;;;;;;;;;;;;;;;;;;4460913;32;20041;-74
2023/01/11 01:29:14;;;;;;;13.05;9.15;;;;;;;;;;4453210;32;19936;-75
2023/01/11 01:31:39;;;;;;;15.75;9.63;;;;;;;;;;4454300;32;20397;-74
2023/01/11 01:34:05;;;;;;;;;;;;;;;;;;4455817;32;20034;-75
2023/01/11 01:36:30;;;;;;;15.57;9.13;;;;;;;;;;4439988;32;19928;-75
2023/01/11 01:38:55;;;;;;;;;;;;;;;;;;4454005;32;20055;-75
2023/01/11 01:41:21;;;;;;;14.55;9.45;;;;;;;;;;4440952;32;19962;-75
2023/01/11 01:43:46;;;;;;;;;;;;;;;;;;4454164;32;20124;-74
2023/01/11 01:46:11;;;;;;;22.42;9.60;;;;;;;;;;4453771;32;20255;-75
2023/01/11 01:48:38;;;;;;;12.20;8.23;;;;;;;;;;4453558;32;20030;-74
2023/01/11 01:51:04;;;;;;;14.40;8.85;;;;;;;;;;4453582;32;20037;-74
2023/01/11 01:53:35;;;;;;;9.48;7.25;;;;;;;;;;4454579;32;20090;-76
2023/01/11 01:56:02;;;;;;;12.48;8.80;;;;;;;;;;4453420;32;20033;-73
2023/01/11 01:58:30;;;;;;;11.35;7.57;;;;;;;;;;4440386;32;20033;-74
2023/01/11 02:00:55;;;;;;;14.43;8.13;;;;;;;;;;4454727;32;20033;-74
2023/01/11 02:03:20;;;;;;;;;;;;;;;;;;4453863;32;20033;-74
2023/01/11 02:05:46;;;;;;;14.87;7.03;;;;;;;;;;4455255;32;19932;-75
2023/01/11 02:08:11;;;;;;;;;;;;;;;;;;4453763;32;20150;-75
2023/01/11 02:10:36;;;;;;;10.00;5.75;;;;;;;;;;4454580;32;19948;-76
2023/01/11 02:13:02;;;;;;;;;;;;;;;;;;4455543;32;20124;-76
2023/01/11 02:15:27;;;;;;;8.18;5.78;;;;;;;;;;4455053;32;19936;-76
2023/01/11 02:17:52;;;;;;;;;;;;;;;;;;4453756;32;20025;-78
2023/01/11 02:20:25;;;;;;;11.12;7.28;;;;;;;;;;4453335;32;19971;-77
2023/01/11 02:23:13;;;;;;;12.35;7.47;;;;;;;;;;4439903;32;20151;-77
2023/01/11 02:25:57;;;;;;;11.93;6.97;;;;;;;;;;4455468;32;20050;-78
2023/01/11 02:28:34;;;;;;;8.27;5.97;;;;;;;;;;4453767;32;20033;-77
2023/01/11 02:31:09;;;;;;;11.90;6.60;;;;;;;;;;4454445;32;20029;-77
2023/01/11 02:33:50;;;;;;;7.55;5.78;;;;;;;;;;4439530;32;20073;-79
2023/01/11 02:36:21;;;;;;;10.13;5.50;;;;;;;;;;4455992;32;20064;-78
2023/01/11 02:38:52;;;;;;;7.80;6.07;;;;;;;;;;4439153;32;20407;-80
2023/01/11 02:41:18;;;;;;;8.95;6.18;;;;;;;;;;4456990;32;20043;-79
2023/01/11 02:46:30;;;;;;;9.95;6.70;;;;;;;;;;4467439;32;19945;-79
2023/01/11 02:49:01;;;;;;;11.02;6.05;;;;;;;;;;4455178;32;20037;-80
2023/01/11 02:51:34;;;;;;;12.37;6.43;;;;;;;;;;4440812;32;20423;-80
2023/01/11 02:54:04;;;;;;;12.73;6.68;;;;;;;;;;4458060;32;20021;-80
2023/01/11 02:56:32;;;;;;;11.98;6.50;;;;;;;;;;4447070;32;20463;-80
2023/01/11 02:58:59;;;;;;;6.75;5.50;;;;;;;;;;4440147;32;20044;-78
2023/01/11 03:01:24;;;;;;;14.05;5.30;;;;;;;;;;4453336;32;20080;-77
2023/01/11 03:03:49;;;;;;;;;;;;;;;;;;4454400;32;20052;-77
2023/01/11 03:06:22;;;;;;;6.32;5.60;;;;;;;;;;4453517;32;19968;-76
2023/01/11 03:08:48;;;;;;;12.88;5.35;;;;;;;;;;4453802;32;20399;-77
2023/01/11 03:11:13;;;;;;;;;;;;;;;;;;4452538;32;20101;-79
2023/01/11 03:13:51;;;;;;;10.20;5.97;;;;;;;;;;4453161;32;19937;-79
2023/01/11 03:16:21;;;;;;;11.70;6.15;;;;;;;;;;4454146;32;20446;-79
2023/01/11 03:18:51;;;;;;;15.77;6.93;;;;;;;;;;4452157;32;20090;-79
2023/01/11 03:21:19;;;;;;;12.18;5.35;;;;;;;;;;4437971;32;20436;-75
2023/01/11 03:23:54;;;;;;;13.88;5.78;;;;;;;;;;4452063;32;20099;-76
2023/01/11 03:26:25;;;;;;;8.50;5.45;;;;;;;;;;4452631;32;20100;-76
2023/01/11 03:28:54;;;;;;;11.45;4.85;;;;;;;;;;4453657;32;20198;-77
2023/01/11 03:31:21;;;;;;;11.77;4.15;;;;;;;;;;4452857;32;20064;-77
2023/01/11 03:33:53;;;;;;;11.73;3.97;;;;;;;;;;4452421;32;20075;-77
2023/01/11 03:36:39;;;;;;;14.73;4.60;;;;;;;;;;4452560;32;20041;-79
2023/01/11 03:39:21;;;;;;;11.82;4.00;;;;;;;;;;4451213;32;20084;-78
2023/01/11 03:41:47;;;;;;;14.85;4.05;;;;;;;;;;4453991;32;20470;-80
2023/01/11 03:44:13;;;;;;;;;;;;;;;;;;4452172;32;20412;-80
2023/01/11 03:46:42;;;;;;;18.67;5.27;;;;;;;;;;4451735;32;20367;-79
2023/01/11 03:49:09;;;;;;;13.77;4.45;;;;;;;;;;4452236;32;20030;-80
2023/01/11 03:51:38;;;;;;;16.15;3.92;;;;;;;;;;4452210;32;20243;-81
2023/01/11 03:54:05;;;;;;;13.13;3.28;;;;;;;;;;4453397;32;20036;-82
2023/01/11 03:56:57;;;;;;;18.02;3.67;;;;;;;;;;4437869;32;20034;-82
2023/01/11 03:59:22;;;;;;;23.33;4.10;;;;;;;;;;4447554;32;20100;-80
2023/01/11 04:01:47;;;;;;;;;;;;;;;;;;4454876;32;20021;-80
2023/01/11 04:04:12;;;;;;;15.60;4.57;;;;;;;;;;4452882;32;19954;-81
2023/01/11 04:06:38;;;;;;;28.48;6.20;;;;;;;;;;4453647;32;20033;-80
2023/01/11 04:09:04;;;;;;;21.77;4.40;;;;;;;;;;4438510;32;20075;-80
2023/01/11 04:11:29;;;;;;;20.88;4.25;;;;;;;;;;4437547;32;20070;-80
2023/01/11 04:13:54;;;;;;;;;;;;;;;;;;4438601;32;20428;-80
2023/01/11 04:16:19;;;;;;;28.42;5.15;;;;;;;;;;4453990;32;19933;-79
2023/01/11 04:18:44;;;;;;;;;;;;;;;;;;4451903;32;20252;-79
2023/01/11 04:21:09;;;;;;;24.48;5.05;;;;;;;;;;4451926;32;20274;-79
2023/01/11 04:23:35;;;;;;;27.00;4.28;;;;;;;;;;4453091;32;20029;-79
2023/01/11 04:26:00;;;;;;;24.17;5.53;;;;;;;;;;4451872;32;20026;-79
2023/01/11 04:28:25;;;;;;;20.67;4.55;;;;;;;;;;4452826;32;20049;-80
2023/01/11 04:30:50;;;;;;;19.12;5.30;;;;;;;;;;4451427;32;20114;-79
2023/01/11 04:33:15;;;;;;;25.92;5.43;;;;;;;;;;4451429;32;20026;-79
2023/01/11 04:35:42;;;;;;;23.98;5.45;;;;;;;;;;4451796;32;20029;-79
2023/01/11 04:38:07;;;;;;;24.20;4.55;;;;;;;;;;4451569;32;20028;-79
2023/01/11 04:40:32;;;;;;;;;;;;;;;;;;4451832;32;20059;-78
2023/01/11 04:43:01;;;;;;;22.80;5.15;;;;;;;;;;4452129;32;20212;-78
2023/01/11 04:45:26;;;;;;;27.23;4.62;;;;;;;;;;4436983;32;20045;-78
2023/01/11 04:47:51;;;;;;;;;;;;;;;;;;4451974;32;20451;-79
2023/01/11 04:50:16;;;;;;;;;;;;;;;;;;4451621;32;19937;-79
2023/01/11 04:52:41;;;;;;;;;;;;;;;;;;4451926;32;19939;-79
2023/01/11 04:55:06;;;;;;;;;;;;;;;;;;4451876;32;19988;-79
2023/01/11 04:57:31;;;;;;;;;;;;;;;;;;4451909;32;19937;-79
2023/01/11 04:59:56;;;;;;;;;;;;;;;;;;4451695;32;20367;-79
2023/01/11 05:02:22;;;;;;;;;;;;;;;;;;4438444;32;19936;-78
2023/01/11 05:04:47;;;;;;;;;;;;;;;;;;4440609;32;19967;-77
2023/01/11 05:07:12;;;;;;;;;;;;;;;;;;4454994;32;19933;-77
2023/01/11 05:09:37;;;;;;;;;;;;;;;;;;4440315;32;19940;-77
2023/01/11 05:12:02;;;;;;;;;;;;;;;;;;4455672;32;19933;-77
2023/01/11 05:14:27;;;;;;;;;;;;;;;;;;4458862;32;19932;-77
2023/01/11 05:16:52;;;;;;;;;;;;;;;;;;4457087;32;19988;-78
2023/01/11 05:19:17;;;;;;;;;;;;;;;;;;4449922;32;19936;-77
2023/01/11 05:21:42;;;;;;;;;;;;;;;;;;4471257;32;19936;-79
2023/01/11 05:24:08;;;;;;;;;;;;;;;;;;4443778;32;19947;-77
2023/01/11 05:26:33;;;;;;;;;;;;;;;;;;4442054;32;20330;-77
2023/01/11 05:28:58;;;;;;;;;;;;;;;;;;4454669;32;20011;-77
2023/01/11 05:31:23;;;;;;;;;;;;;;;;;;4455442;32;19940;-77
2023/01/11 05:33:48;;;;;;;;;;;;;;;;;;4440080;32;19940;-77
2023/01/11 05:36:13;;;;;;;;;;;;;;;;;;4455246;32;19933;-77
2023/01/11 05:38:38;;;;;;;;;;;;;;;;;;4439808;32;19949;-77
2023/01/11 05:41:03;;;;;;;;;;;;;;;;;;4439905;32;19980;-78
2023/01/11 05:43:28;;;;;;;;;;;;;;;;;;4439984;32;19965;-77
2023/01/11 05:45:53;;;;;;;;;;;;;;;;;;4454889;32;19984;-77
2023/01/11 05:48:19;;;;;;;;;;;;;;;;;;4454693;32;19975;-78
2023/01/11 05:50:44;;;;;;;;;;;;;;;;;;4454513;32;19948;-78
2023/01/11 05:53:09;;;;;;;;;;;;;;;;;;4440903;32;19997;-78
2023/01/11 05:55:34;;;;;;;;;;;;;;;;;;4445029;32;20007;-78
2023/01/11 05:57:59;;;;;;;;;;;;;;;;;;4457379;32;19940;-77
2023/01/11 06:00:24;;;;;;;;;;;;;;;;;;4458389;32;20286;-78
2023/01/11 06:02:50;;;;;;;;;;;;;;;;;;4457338;32;19937;-78
2023/01/11 06:05:15;;;;;;;;;;;;;;;;;;4441989;32;19952;-78
2023/01/11 06:07:40;;;;;;;;;;;;;;;;;;4455577;32;19936;-79
2023/01/11 06:10:05;;;;;;;;;;;;;;;;;;4454611;32;19951;-78
2023/01/11 06:12:30;;;;;;;;;;;;;;;;;;4456255;32;19951;-78
2023/01/11 06:14:55;;;;;;;;;;;;;;;;;;4453612;32;19932;-78
2023/01/11 06:17:20;;;;;;;;;;;;;;;;;;4441384;32;19936;-78
2023/01/11 06:19:46;;;;;;;;;;;;;;;;;;4454025;32;19940;-79
2023/01/11 06:22:11;;;;;;;;;;;;;;;;;;4454734;32;19984;-79
2023/01/11 06:24:36;;;;;;;;;;;;;;;;;;4453914;32;19947;-78
2023/01/11 06:27:01;;;;;;;;;;;;;;;;;;4453720;32;19933;-78
2023/01/11 06:29:26;;;;;;;;;;;;;;;;;;4439069;32;19948;-79
2023/01/11 06:31:51;;;;;;;;;;;;;;;;;;4439561;32;19944;-79
2023/01/11 06:34:16;;;;;;;;;;;;;;;;;;4454250;32;19936;-78
2023/01/11 06:36:41;;;;;;;;;;;;;;;;;;4456877;32;19968;-78
2023/01/11 06:39:06;;;;;;;;;;;;;;;;;;4446924;32;19941;-78
2023/01/11 06:41:32;;;;;;;;;;;;;;;;;;4454228;32;19973;-79
2023/01/11 06:43:57;;;;;;;;;;;;;;;;;;4454401;32;19937;-79
2023/01/11 06:46:22;;;;;;;;;;;;;;;;;;4455957;32;19932;-79
2023/01/11 06:48:47;;;;;;;;;;;;;;;;;;4453815;32;19954;-79
2023/01/11 06:51:12;;;;;;;;;;;;;;;;;;4456358;32;19929;-79
2023/01/11 06:53:38;;;;;;;;;;;;;;;;;;4453007;32;19932;-79
2023/01/11 06:56:03;;;;;;;;;;;;;;;;;;4454287;32;19951;-78
2023/01/11 06:58:28;;;;;;;;;;;;;;;;;;4439359;32;19936;-79
2023/01/11 07:00:53;;;;;;;;;;;;;;;;;;4439668;32;19940;-79
2023/01/11 07:03:19;;;;;;;;;;;;;;;;;;4453385;32;20239;-80
2023/01/11 07:05:44;;;;;;;;;;;;;;;;;;4439953;32;19967;-78
2023/01/11 07:08:09;;;;;;;;;;;;;;;;;;4453921;32;19936;-79
2023/01/11 07:10:34;;;;;;;;;;;;;;;;;;4453218;32;19987;-79
2023/01/11 07:13:00;;;;;;;;;;;;;;;;;;4438916;32;20048;-79
2023/01/11 07:15:25;;;;;;;;;;;;;;;;;;4438557;32;20086;-79
2023/01/11 07:17:50;;;;;;;;;;;;;;;;;;4453478;32;19947;-78
2023/01/11 07:20:15;;;;;;;;;;;;;;;;;;4453989;32;19944;-78
2023/01/11 07:22:40;;;;;;;;;;;;;;;;;;4453378;32;19928;-78
2023/01/11 07:25:05;;;;;;;;;;;;;;;;;;4453122;32;20029;-78
2023/01/11 07:27:30;;;;;;;;;;;;;;;;;;4438946;32;20326;-78
2023/01/11 07:29:58;;;;;;;;;;;;;;;;;;4453541;32;19996;-78
2023/01/11 07:32:23;;;;;;;;;;;;;;;;;;4455911;32;20349;-78
2023/01/11 07:34:48;;;;;;;;;;;;;;;;;;4457622;32;20298;-79
2023/01/11 07:37:14;;;;;;;;;;;;;;;;;;4455658;32;19959;-78
2023/01/11 07:39:39;;;;;;;;;;;;;;;;;;4452949;32;20251;-79
2023/01/11 07:44:48;;;;;;;;;;;;;;;;;;4452383;32;19951;-80
2023/01/11 07:47:13;;;;;;;;;;;;;;;;;;4437981;32;19940;-79
2023/01/11 07:49:38;;;;;;;;;;;;;;;;;;4452359;32;19960;-79
2023/01/11 07:52:03;;;;;;;;;;;;;;;;;;4438259;32;19936;-79
2023/01/11 07:54:28;;;;;;;;;;;;;;;;;;4439010;32;19936;-80
2023/01/11 07:56:55;;;;;;;;;;;;;;;;;;4461605;32;19982;-79
2023/01/11 07:59:20;;;;;;;;;;;;;;;;;;4453842;32;20318;-79
2023/01/11 08:01:45;;;;;;;;;;;;;;;;;;4454129;32;20294;-79
2023/01/11 08:04:12;;;;;;;;;;;;;;;;;;4452385;32;19937;-80
2023/01/11 08:06:38;;;;;;;;;;;;;;;;;;4453553;32;19984;-79
2023/01/11 08:09:03;;;;;;;;;;;;;;;;;;4451708;32;20284;-79
2023/01/11 08:17:01;;;;;;;;;;;;;;;;;;4452136;32;20265;-80
2023/01/11 08:19:26;;;;;;;;;;;;;;;;;;4453412;32;19969;-80
2023/01/11 08:21:51;;;;;;;;;;;;;;;;;;4451636;32;19940;-80
2023/01/11 08:24:16;;;;;;;;;;;;;;;;;;4452158;32;20290;-79
2023/01/11 08:26:41;;;;;;;;;;;;;;;;;;4452388;32;19932;-80
2023/01/11 08:29:06;;;;;;;;;;;;;;;;;;4437249;32;19940;-80
2023/01/11 08:31:31;;;;;;;;;;;;;;;;;;4437964;32;19941;-80
2023/01/11 08:33:57;;;;;;;;;;;;;;;;;;4437548;32;19944;-80
2023/01/11 08:36:23;;;;;;;;;;;;;;;;;;4451924;32;19932;-79
2023/01/11 08:38:48;;;;;;;;;;;;;;;;;;4452287;32;19975;-80
2023/01/11 08:41:13;;;;;;;;;;;;;;;;;;4437631;32;19941;-80
2023/01/11 08:43:38;;;;;;;;;;;;;;;;;;4451332;32;19936;-80
2023/01/11 08:46:03;;;;;;;;;;;;;;;;;;4451562;32;19932;-80
2023/01/11 08:48:28;;;;;;;;;;;;;;;;;;4452406;32;19960;-80
2023/01/11 08:50:54;;;;;;;;;;;;;;;;;;4452003;32;19957;-80
2023/01/11 08:53:19;;;;;;;;;;;;;;;;;;4437606;32;19951;-80
2023/01/11 08:55:44;;;;;;;;;;;;;;;;;;4452753;32;19986;-80
2023/01/11 08:58:10;;;;;;;;;;;;;;;;;;4452898;32;19952;-80
2023/01/11 09:00:35;;;;;;;;;;;;;;;;;;4452244;32;19968;-80
2023/01/11 09:03:00;;;;;;;;;;;;;;;;;;4437583;32;20274;-80
2023/01/11 09:05:25;;;;;;;;;;;;;;;;;;4437897;32;19986;-79
2023/01/11 09:07:50;;;;;;;;;;;;;;;;;;4454006;32;20270;-79
2023/01/11 09:10:15;;;;;;;;;;;;;;;;;;4437903;32;20314;-79
2023/01/11 09:12:40;;;;;;;;;;;;;;;;;;4438175;32;19964;-80
2023/01/11 09:15:05;;;;;;;;;;;;;;;;;;4457076;32;19942;-79
2023/01/11 09:17:31;;;;;;;;;;;;;;;;;;4457808;32;19940;-81
2023/01/11 09:19:56;;;;;;;;;;;;;;;;;;4453704;32;19977;-80
2023/01/11 09:22:21;;;;;;;;;;;;;;;;;;4452746;32;19932;-79
2023/01/11 09:24:46;;;;;;;;;;;;;;;;;;4452570;32;20014;-80
2023/01/11 09:27:11;;;;;;;;;;;;;;;;;;4451204;32;19932;-79
2023/01/11 09:29:36;;;;;;;;;;;;;;;;;;4436937;32;20223;-80
2023/01/11 09:32:01;;;;;;;;;;;;;;;;;;4437006;32;19936;-78
2023/01/11 09:34:26;;;;;;;;;;;;;;;;;;4451889;32;19941;-79
2023/01/11 09:36:51;;;;;;;;;;;;;;;;;;4437271;32;20033;-79
2023/01/11 09:39:19;;;;;;;;;;;;;;;;;;4451407;32;20295;-79
2023/01/11 09:41:44;;;;;;;;;;;;;;;;;;4451910;32;19936;-78
2023/01/11 09:44:13;;;;;;;;;;;;;;;;;;4452543;32;19959;-78
2023/01/11 09:46:41;;;;;;;;;;;;;;;;;;4438910;32;19928;-79
2023/01/11 09:49:06;;;;;;;;;;;;;;;;;;4457729;32;20320;-79
2023/01/11 09:51:32;;;;;;;;;;;;;;;;;;4458733;32;19936;-79
2023/01/11 09:53:58;;;;;;;;;;;;;;;;;;4443726;32;19933;-79
2023/01/11 09:56:24;;;;;;;;;;;;;;;;;;4457050;32;19932;-80
2023/01/11 09:58:49;;;;;;;;;;;;;;;;;;4443236;32;20015;-79
2023/01/11 10:01:14;;;;;;;;;;;;;;;;;;4444555;32;20403;-80
2023/01/11 10:03:41;;;;;;;;;;;;;;;;;;4459173;32;19943;-81
2023/01/11 10:06:07;;;;;;;;;;;;;;;;;;4446408;32;19943;-79
2023/01/11 10:08:38;;;;;;;;;;;;;;;;;;4459141;32;19969;-80
2023/01/11 10:11:04;;;;;;;;;;;;;;;;;;4446161;32;19974;-79
2023/01/11 10:13:30;;;;;;;;;;;;;;;;;;4448610;32;19944;-81
2023/01/11 10:15:58;;;;;;;;;;;;;;;;;;4462076;32;19941;-81
2023/01/11 10:18:23;;;;;;;;;;;;;;;;;;4461955;32;19943;-81
2023/01/11 10:20:49;;;;;;;;;;;;;;;;;;4463428;32;19948;-82
2023/01/11 10:23:14;;;;;;;;;;;;;;;;;;4462644;32;19988;-82
2023/01/11 10:25:50;;;;;;;;;;;;;;;;;;4460583;32;20299;-81
2023/01/11 10:28:18;;;;;;;;;;;;;;;;;;4447995;32;19979;-82
2023/01/11 10:31:10;;;;;;;;;;;;;;;;;;4446541;32;19937;-81
2023/01/11 10:36:40;;;;;;;;;;;;;;;;;;4441447;32;19969;-82
2023/01/11 10:41:58;;;;;;;;;;;;;;;;;;4438092;32;19932;-82
2023/01/11 10:44:27;;;;;;;;;;;;;;;;;;4458235;32;19932;-81
2023/01/11 10:46:52;;;;;;;;;;;;;;;;;;4442603;32;19989;-82
2023/01/11 10:49:18;;;;;;;;;;;;;;;;;;4460013;32;19940;-82
2023/01/11 10:51:43;;;;;;;;;;;;;;;;;;4459283;32;19978;-81
2023/01/11 10:54:14;;;;;;;;;;;;;;;;;;4457277;32;19948;-82
2023/01/11 10:56:39;;;;;;;;;;;;;;;;;;4445587;32;19939;-80
2023/01/11 10:59:05;;;;;;;;;;;;;;;;;;4458055;32;19968;-83
2023/01/11 11:01:31;;;;;;;;;;;;;;;;;;4454934;32;19936;-82
2023/01/11 11:03:56;;;;;;;;;;;;;;;;;;4456072;32;19958;-80
2023/01/11 11:06:21;;;;;;;;;;;;;;;;;;4442300;32;19936;-81
2023/01/11 11:08:47;;;;;;;;;;;;;;;;;;4440259;32;19951;-83
2023/01/11 11:11:12;;;;;;;;;;;;;;;;;;4454598;32;20292;-80
2023/01/11 11:13:38;;;;;;;;;;;;;;;;;;4441384;32;19951;-82
2023/01/11 11:16:03;;;;;;;;;;;;;;;;;;4440323;32;19952;-81
2023/01/11 11:18:29;;;;;;;;;;;;;;;;;;4456556;32;20364;-82
2023/01/11 11:20:54;;;;;;;;;;;;;;;;;;4459049;32;19936;-82
2023/01/11 11:23:20;;;;;;;;;;;;;;;;;;4458881;32;19974;-83
2023/01/11 11:25:46;;;;;;;;;;;;;;;;;;4441488;32;19929;-82
2023/01/11 11:28:11;;;;;;;;;;;;;;;;;;4455584;32;19932;-82
2023/01/11 11:30:37;;;;;;;;;;;;;;;;;;4454528;32;20227;-82
2023/01/11 11:33:02;;;;;;;;;;;;;;;;;;4454061;32;19932;-82
2023/01/11 11:35:27;;;;;;;;;;;;;;;;;;4454295;32;19940;-82
2023/01/11 11:37:52;;;;;;;;;;;;;;;;;;4454164;32;19965;-82
2023/01/11 11:40:17;;;;;;;;;;;;;;;;;;4439804;32;20309;-82
2023/01/11 11:42:42;;;;;;;;;;;;;;;;;;4453578;32;19932;-81
2023/01/11 11:45:07;;;;;;;;;;;;;;;;;;4454455;32;19932;-82
2023/01/11 11:47:32;;;;;;;;;;;;;;;;;;4439891;32;19955;-83
2023/01/11 11:49:57;;;;;;;;;;;;;;;;;;4453672;32;19936;-81
2023/01/11 11:52:22;;;;;;;;;;;;;;;;;;4441659;32;19941;-82
2023/01/11 11:54:48;;;;;;;;;;;;;;;;;;4463773;32;19960;-82
2023/01/11 11:57:13;;;;;;;;;;;;;;;;;;4441579;32;19993;-82
2023/01/11 11:59:38;;;;;;;;;;;;;;;;;;4440845;32;19936;-81
2023/01/11 12:02:03;;;;;;;;;;;;;;;;;;4441598;32;19956;-82
2023/01/11 12:04:28;;;;;;;;;;;;;;;;;;4451281;32;20288;-82
2023/01/11 12:06:53;;;;;;;;;;;;;;;;;;4459102;32;19944;-83
2023/01/11 12:09:18;;;;;;;;;;;;;;;;;;4441236;32;19974;-81
2023/01/11 12:11:44;;;;;;;;;;;;;;;;;;4439045;32;19976;-82
2023/01/11 12:14:09;;;;;;;;;;;;;;;;;;4439094;32;19947;-82
2023/01/11 12:16:34;;;;;;;;;;;;;;;;;;4438996;32;19976;-82
2023/01/11 12:18:59;;;;;;;;;;;;;;;;;;4438580;32;20281;-82
2023/01/11 12:21:24;;;;;;;;;;;;;;;;;;4438295;32;19937;-80
2023/01/11 12:23:49;;;;;;;;;;;;;;;;;;4438686;32;19936;-82
2023/01/11 12:26:17;;;;;;;;;;;;;;;;;;4437679;32;19937;-82
2023/01/11 12:28:42;;;;;;;;;;;;;;;;;;4438844;32;19974;-82
2023/01/11 12:31:07;;;;;;;;;;;;;;;;;;4437952;32;19933;-81
2023/01/11 12:33:32;;;;;;;;;;;;;;;;;;4438299;32;19945;-82
2023/01/11 12:35:57;;;;;;;;;;;;;;;;;;4439365;32;19975;-83
2023/01/11 12:38:23;;;;;;;;;;;;;;;;;;4439267;32;19951;-82
2023/01/11 12:40:48;;;;;;;;;;;;;;;;;;4442656;32;19970;-81
2023/01/11 12:43:13;;;;;;;;;;;;;;;;;;4446115;32;19936;-81
2023/01/11 12:45:38;;;;;;;;;;;;;;;;;;4443578;32;19977;-82
2023/01/11 12:48:03;;;;;;;;;;;;;;;;;;4440805;32;19951;-81
2023/01/11 12:50:28;;;;;;;;;;;;;;;;;;4439648;32;19945;-79
2023/01/11 12:52:54;;;;;;;;;;;;;;;;;;4438532;32;19936;-82
2023/01/11 12:55:19;;;;;;;;;;;;;;;;;;4438674;32;19943;-82
2023/01/11 12:57:58;;;;;;;;;;;;;;;;;;4439654;32;19977;-81
2023/01/11 13:00:24;;;;;;;;;;;;;;;;;;4438479;32;19944;-83
2023/01/11 13:02:49;;;;;;;;;;;;;;;;;;4439558;32;19966;-83
2023/01/11 13:05:14;;;;;;;;;;;;;;;;;;4439939;32;19969;-84
2023/01/11 13:07:39;;;;;;;;;;;;;;;;;;4437993;32;19936;-82
2023/01/11 13:10:04;;;;;;;;;;;;;;;;;;4440303;32;20224;-81
2023/01/11 13:12:29;;;;;;;;;;;;;;;;;;4450462;32;19933;-81
2023/01/11 13:14:54;;;;;;;;;;;;;;;;;;4449667;32;19967;-82
2023/01/11 13:17:20;;;;;;;;;;;;;;;;;;4438469;32;19933;-82
2023/01/11 13:19:45;;;;;;;;;;;;;;;;;;4437232;32;19955;-82
2023/01/11 13:22:10;;;;;;;;;;;;;;;;;;4436940;32;20016;-82
2023/01/11 13:24:36;;;;;;;;;;;;;;;;;;4439005;32;20033;-81
2023/01/11 13:27:01;;;;;;;;;;;;;;;;;;4441534;32;19947;-81
2023/01/11 13:29:26;;;;;;;;;;;;;;;;;;4439648;32;19959;-81
2023/01/11 13:31:53;;;;;;;;;;;;;;;;;;4426614;32;19951;-80
2023/01/11 13:34:18;;;;;;;;;;;;;;;;;;4440546;32;19932;-81
2023/01/11 13:36:44;;;;;;;;;;;;;;;;;;4440934;32;20027;-79
2023/01/11 13:39:09;;;;;;;;;;;;;;;;;;4439698;32;19970;-81
2023/01/11 13:41:34;;;;;;;;;;;;;;;;;;4439437;32;19995;-80
2023/01/11 13:43:59;;;;;;;;;;;;;;;;;;4438739;32;19974;-80
2023/01/11 13:46:24;;;;;;;;;;;;;;;;;;4438804;32;20189;-81
2023/01/11 13:48:50;;;;;;;;;;;;;;;;;;4424968;32;19948;-81
2023/01/11 13:51:15;;;;;;;;;;;;;;;;;;4425119;32;20045;-80
2023/01/11 13:53:40;;;;;;;;;;;;;;;;;;4438779;32;20259;-79
2023/01/11 13:56:07;;;;;;;;;;;;;;;;;;4424729;32;19978;-80
2023/01/11 13:58:32;;;;;;;;;;;;;;;;;;4439641;32;19968;-80
2023/01/11 14:00:57;;;;;;;;;;;;;;;;;;4439931;32;19932;-80
2023/01/11 14:03:22;;;;;;;;;;;;;;;;;;4425081;32;19967;-81
2023/01/11 14:05:47;;;;;;;;;;;;;;;;;;4440166;32;19940;-81
2023/01/11 14:08:13;;;;;;;;;;;;;;;;;;4440012;32;19936;-79
2023/01/11 14:10:38;;;;;;;;;;;;;;;;;;4439458;32;19937;-80
2023/01/11 14:13:03;;;;;;;;;;;;;;;;;;4439608;32;19972;-80
2023/01/11 14:15:31;;;;;;;;;;;;;;;;;;4439144;32;20242;-82
2023/01/11 14:17:56;;;;;;;;;;;;;;;;;;4439712;32;19945;-79
2023/01/11 14:20:21;;;;;;;;;;;;;;;;;;4450173;32;19950;-80
2023/01/11 14:22:46;;;;;;;;;;;;;;;;;;4441638;32;19941;-80
2023/01/11 14:25:11;;;;;;;;;;;;;;;;;;4448723;32;19965;-82
2023/01/11 14:27:36;;;;;;;;;;;;;;;;;;4436543;32;19924;-79
2023/01/11 14:30:01;;;;;;;;;;;;;;;;;;4453289;32;19937;-80
2023/01/11 14:32:26;;;;;;;;;;;;;;;;;;4440440;32;19998;-81
2023/01/11 14:34:52;;;;;;;;;;;;;;;;;;4445931;32;19956;-80
2023/01/11 14:37:17;;;;;;;;;;;;;;;;;;4440900;32;19937;-79
2023/01/11 14:39:42;;;;;;;;;;;;;;;;;;4425146;32;20039;-81
2023/01/11 14:42:07;;;;;;;;;;;;;;;;;;4440331;32;19937;-79
2023/01/11 14:44:32;;;;;;;;;;;;;;;;;;4439769;32;19980;-78
2023/01/11 14:46:57;;;;;;;;;;;;;;;;;;4424609;32;19952;-79
2023/01/11 14:49:22;;;;;;;;;;;;;;;;;;4424676;32;19948;-79
2023/01/11 14:51:47;;;;;;;;;;;;;;;;;;4439390;32;19989;-82
2023/01/11 14:54:12;;;;;;;;;;;;;;;;;;4430901;32;20224;-80
2023/01/11 14:56:37;;;;;;;;;;;;;;;;;;4438754;32;19984;-80
2023/01/11 14:59:03;;;;;;;;;;;;;;;;;;4438351;32;19990;-76
2023/01/11 15:01:28;;;;;;;;;;;;;;;;;;4424278;32;20302;-80
2023/01/11 15:03:53;;;;;;;;;;;;;;;;;;4438416;32;19986;-81
2023/01/11 15:06:20;;;;;;;;;;;;;;;;;;4438502;32;19988;-80
2023/01/11 15:08:45;;;;;;;;;;;;;;;;;;4439541;32;19992;-82
2023/01/11 15:11:10;;;;;;;;;;;;;;;;;;4438077;32;19974;-81
2023/01/11 15:13:35;;;;;;;;;;;;;;;;;;4438253;32;19968;-82
2023/01/11 15:18:44;;;;;;;;;;;;;;;;;;4441882;32;20348;-81
2023/01/11 15:21:09;;;;;;;;;;;;;;;;;;4427257;32;19937;-80
2023/01/11 15:23:34;;;;;;;;;;;;;;;;;;4426185;32;19937;-80
2023/01/11 15:25:59;;;;;;;;;;;;;;;;;;4425963;32;19936;-80
2023/01/11 15:28:24;;;;;;;;;;;;;;;;;;4426091;32;19941;-77
2023/01/11 15:30:50;;;;;;;;;;;;;;;;;;4441519;32;19941;-80
2023/01/11 15:33:15;;;;;;;;;;;;;;;;;;4443972;32;20275;-79
2023/01/11 15:35:40;;;;;;;;;;;;;;;;;;4450196;32;19944;-80
2023/01/11 15:38:06;;;;;;;;;;;;;;;;;;4453866;32;19951;-81
2023/01/11 15:40:31;;;;;;;;;;;;;;;;;;4454405;32;20208;-81
2023/01/11 15:42:56;;;;;;;;;;;;;;;;;;4454065;32;19947;-81
2023/01/11 15:45:21;;;;;;;;;;;;;;;;;;4454938;32;19936;-81
2023/01/11 15:47:46;;;;;;;;;;;;;;;;;;4458518;32;19932;-81
2023/01/11 15:50:11;;;;;;;;;;;;;;;;;;4453511;32;19921;-81
2023/01/11 15:52:36;;;;;;;;;;;;;;;;;;4464803;32;19951;-80
2023/01/11 15:55:01;;;;;;;;;;;;;;;;;;4453210;32;19948;-82
2023/01/11 15:57:26;;;;;;;;;;;;;;;;;;4439142;32;19956;-79
2023/01/11 15:59:51;;;;;;;;;;;;;;;;;;4439843;32;20347;-81
2023/01/11 16:02:16;;;;;;;;;;;;;;;;;;4440046;32;19936;-81
2023/01/11 16:04:42;;;;;;;;;;;;;;;;;;4440210;32;19951;-80
2023/01/11 16:07:07;;;;;;;;;;;;;;;;;;4453284;32;19937;-79
2023/01/11 16:09:32;;;;;;;;;;;;;;;;;;4452652;32;19945;-81
2023/01/11 16:11:57;;;;;;;;;;;;;;;;;;4452785;32;19933;-81
2023/01/11 16:14:22;;;;;;;;;;;;;;;;;;4452254;32;19932;-79
2023/01/11 16:16:50;;;;;;;;;;;;;;;;;;4451887;32;19937;-80
2023/01/11 16:19:15;;;;;;;;;;;;;;;;;;4452110;32;20339;-80
2023/01/11 16:21:41;;;;;;;;;;;;;;;;;;4452242;32;19948;-81
2023/01/11 16:24:06;;;;;;;;;;;;;;;;;;4437985;32;19940;-82
2023/01/11 16:26:31;;;;;;;;;;;;;;;;;;4452212;32;19947;-81
2023/01/11 16:28:56;;;;;;;;;;;;;;;;;;4452856;32;20275;-81